Time;durP1;ratioP1;P1;durP2;ratioP2;P2;SDS_P1;SDS_P2;PMS_P1;PMS_P2;Temp;Humidity;BMP_temperature;BMP_pressure;BME280_temperature;BME280_humidity;BME280_pressure;Samples;Min_cycle;Max_cycle;Signal;HPM_P1;HPM_P2
2023/06/10 00:02:23;;;;;;;4.22;3.83;;;19.20;99.90;;;;;;5073371;28;20208;-57
2023/06/10 00:04:50;;;;;;;4.68;3.70;;;19.10;99.90;;;;;;5073238;28;20231;-56
2023/06/10 00:07:17;;;;;;;6.38;3.83;;;19.10;99.90;;;;;;5072940;28;20305;-56
2023/06/10 00:09:45;;;;;;;4.25;3.85;;;19.10;99.90;;;;;;5073013;28;20254;-58
2023/06/10 00:12:13;;;;;;;4.03;3.63;;;19.10;99.90;;;;;;5072922;28;20208;-58
2023/06/10 00:14:40;;;;;;;4.78;4.10;;;19.00;99.90;;;;;;5073031;28;20205;-56
2023/06/10 00:17:09;;;;;;;5.88;3.70;;;19.00;99.90;;;;;;5072710;28;20236;-57
2023/06/10 00:19:36;;;;;;;5.30;4.05;;;18.90;99.90;;;;;;5072821;28;20674;-58
2023/06/10 00:22:04;;;;;;;4.93;3.95;;;19.00;99.90;;;;;;5072839;28;20209;-56
2023/06/10 00:24:31;;;;;;;4.28;3.88;;;18.90;99.90;;;;;;5072551;28;20240;-56
2023/06/10 00:26:59;;;;;;;5.30;4.32;;;18.90;99.90;;;;;;5072678;28;20229;-57
2023/06/10 00:29:26;;;;;;;7.00;4.18;;;18.90;99.90;;;;;;5072625;28;20204;-57
2023/06/10 00:31:53;;;;;;;3.92;3.45;;;18.80;99.90;;;;;;5072747;28;20577;-58
2023/06/10 00:34:20;;;;;;;4.45;3.97;;;18.80;99.90;;;;;;5072421;28;20233;-56
2023/06/10 00:36:47;;;;;;;4.22;3.83;;;18.80;99.90;;;;;;5072082;28;20308;-57
2023/06/10 00:39:14;;;;;;;4.20;3.80;;;18.80;99.90;;;;;;5072269;28;20691;-56
2023/06/10 00:41:41;;;;;;;4.35;3.95;;;18.70;99.90;;;;;;5072554;28;20205;-57
2023/06/10 00:44:09;;;;;;;4.65;3.60;;;18.60;99.90;;;;;;5072407;28;20299;-57
2023/06/10 00:46:37;;;;;;;3.90;3.58;;;18.60;99.90;;;;;;5071805;28;20710;-57
2023/06/10 00:49:04;;;;;;;4.40;4.00;;;18.60;99.90;;;;;;5072281;28;20209;-57
2023/06/10 00:51:30;;;;;;;4.32;3.33;;;18.60;99.90;;;;;;5072259;28;20204;-56
2023/06/10 00:53:58;;;;;;;3.90;3.45;;;18.60;99.90;;;;;;5072027;28;20706;-56
2023/06/10 00:56:25;;;;;;;4.50;4.10;;;18.60;99.90;;;;;;5071762;28;20205;-56
2023/06/10 00:58:51;;;;;;;4.22;3.83;;;18.60;99.90;;;;;;5072097;28;20209;-57
2023/06/10 01:01:19;;;;;;;3.67;3.38;;;18.50;99.90;;;;;;5072224;28;20602;-56
2023/06/10 01:03:47;;;;;;;4.05;3.60;;;18.50;99.90;;;;;;5072119;28;20204;-56
2023/06/10 01:06:26;;;;;;;5.05;3.42;;;18.40;99.90;;;;;;5071714;28;20225;-57
2023/06/10 01:08:58;;;;;;;4.15;3.30;;;18.40;99.90;;;;;;5072222;28;20208;-56
2023/06/10 01:11:32;;;;;;;4.03;3.63;;;18.40;99.90;;;;;;5072199;28;20209;-56
2023/06/10 01:14:00;;;;;;;3.70;3.40;;;18.50;99.90;;;;;;5072227;28;20686;-56
2023/06/10 01:16:29;;;;;;;4.63;4.22;;;18.40;99.90;;;;;;5071531;28;20201;-56
2023/06/10 01:18:56;;;;;;;3.80;3.50;;;18.50;99.90;;;;;;5108249;22;20315;-59
2023/06/10 01:21:26;;;;;;;4.80;4.05;;;18.50;99.90;;;;;;5092387;28;20209;-59
2023/06/10 01:23:55;;;;;;;4.32;3.60;;;18.50;99.90;;;;;;5095086;28;20204;-59
2023/06/10 01:26:25;;;;;;;3.75;3.45;;;18.50;99.90;;;;;;5095814;28;20246;-59
2023/06/10 01:28:58;;;;;;;4.13;3.72;;;18.40;99.90;;;;;;5095415;28;20230;-59
2023/06/10 01:31:36;;;;;;;4.20;3.80;;;18.40;99.90;;;;;;5096380;28;20234;-58
2023/06/10 01:34:08;;;;;;;4.40;3.78;;;18.30;99.90;;;;;;5095604;28;20249;-59
2023/06/10 01:36:37;;;;;;;5.10;4.03;;;18.30;99.90;;;;;;5095792;28;20210;-59
2023/06/10 01:39:05;;;;;;;4.80;3.88;;;18.30;99.90;;;;;;5094886;28;20274;-59
2023/06/10 01:41:33;;;;;;;4.40;4.00;;;18.30;99.90;;;;;;5094342;28;20206;-59
2023/06/10 01:44:00;;;;;;;4.10;3.70;;;18.20;99.90;;;;;;5095721;28;20291;-59
2023/06/10 01:46:27;;;;;;;3.55;3.25;;;18.20;99.90;;;;;;5095377;28;20234;-58
2023/06/10 01:48:54;;;;;;;5.28;3.45;;;18.20;99.90;;;;;;5094554;28;20580;-59
2023/06/10 01:51:21;;;;;;;3.88;3.50;;;18.20;99.90;;;;;;5094736;28;20208;-59
2023/06/10 01:53:49;;;;;;;5.07;3.60;;;18.20;99.90;;;;;;5094301;28;20300;-59
2023/06/10 01:56:18;;;;;;;4.65;3.97;;;18.20;99.90;;;;;;5094255;28;20226;-59
2023/06/10 01:58:45;;;;;;;4.93;3.40;;;18.10;99.90;;;;;;5095042;28;20277;-58
2023/06/10 02:01:13;;;;;;;3.85;3.55;;;18.00;99.90;;;;;;5094368;28;20268;-59
2023/06/10 02:03:40;;;;;;;5.15;3.60;;;18.00;99.90;;;;;;5094185;28;20211;-59
2023/06/10 02:06:06;;;;;;;4.97;3.47;;;18.00;99.90;;;;;;5094613;28;20226;-58
2023/06/10 02:08:33;;;;;;;4.15;3.75;;;18.00;99.90;;;;;;5093772;28;20752;-58
2023/06/10 02:11:02;;;;;;;3.92;3.53;;;17.90;99.90;;;;;;5098079;28;20205;-58
2023/06/10 02:13:29;;;;;;;4.07;3.50;;;17.90;99.90;;;;;;5098014;28;20215;-59
2023/06/10 02:15:56;;;;;;;4.32;3.50;;;17.90;99.90;;;;;;5097856;28;20212;-58
2023/06/10 02:18:23;;;;;;;3.60;3.30;;;17.90;99.90;;;;;;5096715;28;20266;-58
2023/06/10 02:20:50;;;;;;;4.18;3.40;;;17.90;99.90;;;;;;5096663;28;20200;-58
2023/06/10 02:23:17;;;;;;;5.97;3.65;;;17.90;99.90;;;;;;5096943;28;20198;-58
2023/06/10 02:25:43;;;;;;;4.50;3.38;;;17.90;99.90;;;;;;5097205;28;20666;-58
2023/06/10 02:28:12;;;;;;;3.83;3.42;;;17.90;99.90;;;;;;5097183;28;20223;-58
2023/06/10 02:30:40;;;;;;;4.10;3.65;;;17.90;99.90;;;;;;5096925;28;20294;-58
2023/06/10 02:33:09;;;;;;;3.90;3.50;;;17.90;99.90;;;;;;5097201;28;20564;-58
2023/06/10 02:35:37;;;;;;;4.70;3.65;;;17.90;99.90;;;;;;5096630;28;20234;-58
2023/06/10 02:38:03;;;;;;;3.40;3.08;;;17.80;99.90;;;;;;5096852;28;20231;-58
2023/06/10 02:40:30;;;;;;;4.80;3.67;;;17.80;99.90;;;;;;5096997;28;20230;-59
2023/06/10 02:42:58;;;;;;;3.58;3.28;;;17.80;99.90;;;;;;5096679;28;20200;-58
2023/06/10 02:45:26;;;;;;;3.92;3.47;;;17.80;99.90;;;;;;5096684;28;20204;-58
2023/06/10 02:47:53;;;;;;;4.10;3.70;;;17.80;99.90;;;;;;5096322;28;20228;-58
2023/06/10 02:50:20;;;;;;;4.53;3.40;;;17.80;99.90;;;;;;5096417;28;20215;-58
2023/06/10 02:52:47;;;;;;;3.70;3.40;;;17.80;99.90;;;;;;5096825;28;20265;-58
2023/06/10 02:55:13;;;;;;;3.97;3.63;;;17.80;99.90;;;;;;5096121;28;20204;-58
2023/06/10 02:57:40;;;;;;;3.90;3.50;;;17.80;99.90;;;;;;5096404;28;20251;-59
2023/06/10 03:00:10;;;;;;;3.95;3.55;;;17.80;99.90;;;;;;5096337;28;20216;-58
2023/06/10 03:02:39;;;;;;;4.40;3.17;;;17.80;99.90;;;;;;5096366;28;20237;-58
2023/06/10 03:05:09;;;;;;;3.20;2.90;;;17.70;99.90;;;;;;5095785;28;20724;-58
2023/06/10 03:07:36;;;;;;;3.30;3.00;;;17.80;99.90;;;;;;5096233;28;20228;-58
2023/06/10 03:10:04;;;;;;;4.07;3.67;;;17.80;99.90;;;;;;5096400;28;20204;-58
2023/06/10 03:12:30;;;;;;;3.53;3.22;;;17.80;99.90;;;;;;5096583;28;20270;-58
2023/06/10 03:14:57;;;;;;;5.88;3.78;;;17.80;99.90;;;;;;5096493;28;20212;-58
2023/06/10 03:17:25;;;;;;;3.85;3.40;;;17.80;99.90;;;;;;5095903;28;20228;-58
2023/06/10 03:19:53;;;;;;;3.90;3.45;;;17.80;99.90;;;;;;5096462;28;20235;-58
2023/06/10 03:22:20;;;;;;;3.38;3.10;;;17.70;99.90;;;;;;5097244;28;20203;-58
2023/06/10 03:24:50;;;;;;;4.10;3.58;;;17.70;99.90;;;;;;5097390;28;20299;-58
2023/06/10 03:27:17;;;;;;;3.67;3.20;;;17.80;99.90;;;;;;5097700;28;20231;-57
2023/06/10 03:29:44;;;;;;;3.75;3.30;;;17.80;99.90;;;;;;5097617;28;20301;-58
2023/06/10 03:32:11;;;;;;;3.60;3.30;;;17.80;99.90;;;;;;5097299;28;20204;-58
2023/06/10 03:34:38;;;;;;;3.70;3.25;;;17.80;99.90;;;;;;5097998;28;20231;-58
2023/06/10 03:37:06;;;;;;;4.38;3.35;;;17.80;99.90;;;;;;5097162;28;20219;-57
2023/06/10 03:39:33;;;;;;;4.28;3.88;;;17.90;99.90;;;;;;5097789;28;20295;-58
2023/06/10 03:42:00;;;;;;;4.18;3.75;;;17.90;99.90;;;;;;5097941;28;20201;-58
2023/06/10 03:44:27;;;;;;;3.78;3.45;;;17.90;99.90;;;;;;5098363;28;20200;-58
2023/06/10 03:46:54;;;;;;;3.45;3.08;;;18.00;99.90;;;;;;5097153;28;20323;-58
2023/06/10 03:49:21;;;;;;;3.70;3.40;;;18.00;99.90;;;;;;5097959;28;20635;-60
2023/06/10 03:51:48;;;;;;;4.65;3.53;;;18.10;99.90;;;;;;5098085;28;20200;-59
2023/06/10 03:54:16;;;;;;;3.75;3.45;;;18.10;99.90;;;;;;5098206;28;20553;-59
2023/06/10 03:56:43;;;;;;;4.30;3.50;;;18.10;99.90;;;;;;5097989;28;20200;-59
2023/06/10 03:59:10;;;;;;;5.18;3.50;;;18.20;99.90;;;;;;5097809;28;20319;-59
2023/06/10 04:01:41;;;;;;;3.78;3.47;;;18.10;99.90;;;;;;5097216;28;20208;-59
2023/06/10 04:04:07;;;;;;;3.80;3.50;;;18.10;99.90;;;;;;5098190;28;20207;-59
2023/06/10 04:06:34;;;;;;;3.42;3.13;;;18.10;99.90;;;;;;5097582;28;20216;-58
2023/06/10 04:09:03;;;;;;;4.10;3.70;;;18.10;99.90;;;;;;5096635;28;20224;-57
2023/06/10 04:11:32;;;;;;;3.85;3.53;;;18.10;99.90;;;;;;5097250;28;20212;-58
2023/06/10 04:13:59;;;;;;;5.78;3.15;;;18.00;99.90;;;;;;5097392;28;20236;-58
2023/06/10 04:16:26;;;;;;;4.15;3.70;;;18.10;99.90;;;;;;5096739;28;20207;-58
2023/06/10 04:18:53;;;;;;;3.95;3.58;;;18.20;99.90;;;;;;5096703;28;20308;-59
2023/06/10 04:21:19;;;;;;;4.03;3.53;;;18.20;99.90;;;;;;5096712;28;20204;-59
2023/06/10 04:23:46;;;;;;;6.75;3.85;;;18.30;99.90;;;;;;5097200;28;20258;-59
2023/06/10 04:26:13;;;;;;;5.25;3.70;;;18.30;99.90;;;;;;5095814;28;20269;-58
2023/06/10 04:28:43;;;;;;;5.75;3.83;;;18.30;99.90;;;;;;5095632;28;20224;-58
2023/06/10 04:31:10;;;;;;;3.78;3.47;;;18.20;99.90;;;;;;5096014;28;20204;-58
2023/06/10 04:33:37;;;;;;;5.70;3.90;;;18.10;99.90;;;;;;5094952;28;20204;-58
2023/06/10 04:36:06;;;;;;;4.18;3.67;;;18.20;99.90;;;;;;5095623;28;20231;-58
2023/06/10 04:38:33;;;;;;;5.65;4.32;;;18.20;99.90;;;;;;5095813;28;20701;-58
2023/06/10 04:41:00;;;;;;;6.05;4.80;;;18.30;99.90;;;;;;5095560;28;20285;-58
2023/06/10 04:43:28;;;;;;;4.57;4.05;;;18.50;99.90;;;;;;5094925;28;20291;-58
2023/06/10 04:45:56;;;;;;;6.53;4.00;;;18.80;99.90;;;;;;5095162;28;20669;-58
2023/06/10 04:48:23;;;;;;;5.60;3.97;;;19.30;99.90;;;;;;5095050;28;20713;-58
2023/06/10 04:50:51;;;;;;;4.53;3.60;;;20.20;99.90;;;;;;5095021;28;20255;-58
2023/06/10 04:53:18;;;;;;;4.30;3.90;;;21.50;99.90;;;;;;5094898;28;20240;-58
2023/06/10 04:55:45;;;;;;;3.83;3.13;;;23.00;99.90;;;;;;5095031;28;20268;-58
2023/06/10 04:58:12;;;;;;;4.45;3.15;;;24.60;99.90;;;;;;5094173;28;20224;-58
2023/06/10 05:00:38;;;;;;;3.90;3.20;;;26.10;96.40;;;;;;5094859;28;20653;-58
2023/06/10 05:03:07;;;;;;;5.03;3.42;;;27.40;93.50;;;;;;5094333;28;20558;-59
2023/06/10 05:05:33;;;;;;;6.60;3.28;;;28.70;90.30;;;;;;5093802;28;20204;-59
2023/06/10 05:08:00;;;;;;;3.20;2.90;;;30.00;84.90;;;;;;5093058;28;20319;-59
2023/06/10 05:10:31;;;;;;;3.50;3.20;;;31.20;79.30;;;;;;5093223;28;20209;-59
2023/06/10 05:12:58;;;;;;;4.85;3.55;;;32.30;73.10;;;;;;5093983;28;20238;-60
2023/06/10 05:15:25;;;;;;;3.60;3.10;;;33.20;69.90;;;;;;5093456;28;20738;-60
2023/06/10 05:17:51;;;;;;;3.40;3.10;;;34.00;66.40;;;;;;5093532;28;20235;-60
2023/06/10 05:20:19;;;;;;;3.35;3.03;;;34.70;64.00;;;;;;5093913;28;20676;-60
2023/06/10 05:22:46;;;;;;;3.60;3.30;;;35.20;60.30;;;;;;5093839;28;20228;-60
2023/06/10 05:25:13;;;;;;;5.63;3.25;;;35.30;59.30;;;;;;5093805;28;20269;-60
2023/06/10 05:27:42;;;;;;;4.65;2.95;;;35.70;58.10;;;;;;5093836;28;20243;-60
2023/06/10 05:30:10;;;;;;;4.75;3.00;;;36.30;56.10;;;;;;5093439;28;20204;-60
2023/06/10 05:32:38;;;;;;;4.68;3.00;;;36.70;55.90;;;;;;5093423;28;20238;-60
2023/06/10 05:35:06;;;;;;;3.85;2.90;;;37.10;54.40;;;;;;5093117;28;20204;-60
2023/06/10 05:37:34;;;;;;;3.05;2.75;;;37.60;54.00;;;;;;5093550;28;20277;-60
2023/06/10 05:40:01;;;;;;;4.75;2.90;;;38.00;53.00;;;;;;5094855;28;20208;-59
2023/06/10 05:42:28;;;;;;;6.15;2.97;;;38.00;51.60;;;;;;5092620;28;20204;-59
2023/06/10 05:44:55;;;;;;;3.63;3.22;;;37.70;52.50;;;;;;5094663;28;20222;-59
2023/06/10 05:47:22;;;;;;;3.53;2.80;;;37.70;52.90;;;;;;5096288;28;20231;-60
2023/06/10 05:49:49;;;;;;;4.95;2.85;;;38.00;51.90;;;;;;5096548;28;20219;-59
2023/06/10 05:52:16;;;;;;;3.08;2.78;;;38.70;51.00;;;;;;5096466;28;20611;-59
2023/06/10 05:54:44;;;;;;;3.08;2.78;;;39.40;49.70;;;;;;5096460;28;20587;-59
2023/06/10 05:57:11;;;;;;;2.88;2.67;;;39.50;49.10;;;;;;5096065;28;20318;-60
2023/06/10 05:59:38;;;;;;;5.18;2.83;;;39.50;49.50;;;;;;5096120;28;20363;-60
2023/06/10 06:02:06;;;;;;;3.20;2.90;;;40.20;48.30;;;;;;5096217;28;20663;-59
2023/06/10 06:04:33;;;;;;;3.22;2.92;;;40.70;47.70;;;;;;5096282;28;20257;-59
2023/06/10 06:06:59;;;;;;;4.32;2.97;;;40.00;48.20;;;;;;5095755;28;20696;-59
2023/06/10 06:09:26;;;;;;;3.05;2.80;;;40.20;47.70;;;;;;5096167;28;20207;-60
2023/06/10 06:11:54;;;;;;;3.10;2.83;;;40.50;47.00;;;;;;5095887;28;20227;-59
2023/06/10 06:14:21;;;;;;;3.33;3.03;;;40.70;47.50;;;;;;5096044;28;20211;-60
2023/06/10 06:16:48;;;;;;;3.45;2.80;;;40.50;47.00;;;;;;5095476;28;20219;-60
2023/06/10 06:19:15;;;;;;;3.58;3.25;;;39.90;48.00;;;;;;5096363;28;20215;-60
2023/06/10 06:21:42;;;;;;;4.15;2.90;;;40.40;47.70;;;;;;5095920;28;20256;-60
2023/06/10 06:24:09;;;;;;;3.42;2.88;;;41.30;46.30;;;;;;5096702;28;20207;-60
2023/06/10 06:26:36;;;;;;;3.80;3.20;;;42.20;45.10;;;;;;5097992;28;20210;-60
2023/06/10 06:29:04;;;;;;;2.80;2.53;;;42.70;44.40;;;;;;5098380;28;20649;-61
2023/06/10 06:31:31;;;;;;;3.47;3.08;;;43.40;43.90;;;;;;5097597;28;20261;-61
2023/06/10 06:33:58;;;;;;;3.00;2.70;;;43.70;42.90;;;;;;5097951;28;20219;-60
2023/06/10 06:36:25;;;;;;;3.45;2.90;;;44.10;42.20;;;;;;5097452;28;20210;-61
2023/06/10 06:38:52;;;;;;;4.35;3.15;;;44.70;41.30;;;;;;5097896;28;20220;-61
2023/06/10 06:41:19;;;;;;;2.72;2.53;;;45.20;41.00;;;;;;5097245;28;20646;-61
2023/06/10 06:43:46;;;;;;;3.38;2.80;;;45.20;40.60;;;;;;5098152;28;20223;-61
2023/06/10 06:46:15;;;;;;;4.32;3.10;;;45.00;41.00;;;;;;5098060;28;20231;-61
2023/06/10 06:48:42;;;;;;;3.05;2.75;;;45.20;40.70;;;;;;5098019;28;20227;-60
2023/06/10 06:51:09;;;;;;;2.90;2.70;;;45.00;40.80;;;;;;5098018;28;20210;-61
2023/06/10 06:53:36;;;;;;;5.25;3.60;;;45.10;40.40;;;;;;5097758;28;20615;-61
2023/06/10 06:56:03;;;;;;;6.63;5.88;;;45.40;40.20;;;;;;5096049;28;20227;-60
2023/06/10 06:58:30;;;;;;;4.32;2.83;;;45.70;39.80;;;;;;5095546;28;20727;-60
2023/06/10 07:00:57;;;;;;;3.58;3.03;;;46.20;38.90;;;;;;5095789;28;20234;-60
2023/06/10 07:03:25;;;;;;;6.57;2.78;;;46.70;38.50;;;;;;5095260;28;20240;-60
2023/06/10 07:05:52;;;;;;;3.30;3.00;;;47.20;38.10;;;;;;5094955;28;20214;-60
2023/06/10 07:08:19;;;;;;;3.60;2.90;;;47.70;37.30;;;;;;5096939;28;20220;-61
2023/06/10 07:10:45;;;;;;;3.47;2.67;;;47.50;36.90;;;;;;5098765;28;20207;-60
2023/06/10 07:13:12;;;;;;;3.13;2.83;;;46.50;38.30;;;;;;5099999;28;20214;-60
2023/06/10 07:15:39;;;;;;;3.10;2.85;;;46.30;37.30;;;;;;5098057;28;20586;-60
2023/06/10 07:18:06;;;;;;;2.95;2.60;;;45.80;37.80;;;;;;5096978;28;20227;-61
2023/06/10 07:20:35;;;;;;;2.70;2.50;;;45.50;37.70;;;;;;5096281;28;20218;-60
2023/06/10 07:23:01;;;;;;;2.72;2.47;;;44.60;38.80;;;;;;5097134;28;20209;-61
2023/06/10 07:25:28;;;;;;;3.03;2.50;;;44.40;38.70;;;;;;5096548;28;20474;-61
2023/06/10 07:27:55;;;;;;;3.03;2.80;;;44.60;38.80;;;;;;5096311;28;20235;-61
2023/06/10 07:30:22;;;;;;;3.10;2.33;;;44.70;38.80;;;;;;5096548;28;20695;-61
2023/06/10 07:32:49;;;;;;;3.03;2.72;;;45.10;38.20;;;;;;5096832;28;20644;-61
2023/06/10 07:35:16;;;;;;;2.67;2.47;;;45.70;37.80;;;;;;5095756;28;20222;-61
2023/06/10 07:37:44;;;;;;;2.72;2.50;;;46.30;37.10;;;;;;5096923;28;20700;-59
2023/06/10 07:40:11;;;;;;;3.25;2.65;;;46.90;36.50;;;;;;5095276;28;20518;-61
2023/06/10 07:42:38;;;;;;;5.20;2.80;;;47.40;35.80;;;;;;5095043;28;20199;-60
2023/06/10 07:45:06;;;;;;;3.78;2.63;;;47.60;35.80;;;;;;5094501;28;20298;-60
2023/06/10 07:47:34;;;;;;;3.30;2.78;;;47.60;35.80;;;;;;5094272;28;20598;-60
2023/06/10 07:50:02;;;;;;;2.95;2.65;;;47.80;34.90;;;;;;5094386;28;20286;-60
2023/06/10 07:52:29;;;;;;;2.83;2.60;;;47.50;35.10;;;;;;5094148;28;20207;-59
2023/06/10 07:54:57;;;;;;;3.20;2.60;;;46.50;35.90;;;;;;5093918;28;20703;-59
2023/06/10 07:57:24;;;;;;;3.78;2.60;;;46.00;36.10;;;;;;5094214;28;20230;-58
2023/06/10 07:59:51;;;;;;;4.35;2.60;;;45.50;36.70;;;;;;5093997;28;20271;-60
2023/06/10 08:02:18;;;;;;;5.75;2.70;;;44.30;37.60;;;;;;5093885;28;20207;-59
2023/06/10 08:04:44;;;;;;;4.93;2.78;;;43.40;39.20;;;;;;5093817;28;20200;-59
2023/06/10 08:07:11;;;;;;;4.10;2.80;;;43.10;38.90;;;;;;5094355;28;20592;-59
2023/06/10 08:09:38;;;;;;;3.30;3.00;;;42.90;39.00;;;;;;5094802;28;20242;-59
2023/06/10 08:12:08;;;;;;;3.58;3.10;;;42.70;39.10;;;;;;5094331;28;20238;-59
2023/06/10 08:14:34;;;;;;;2.97;2.72;;;42.40;39.70;;;;;;5094562;28;20282;-60
2023/06/10 08:17:01;;;;;;;3.83;2.70;;;42.30;39.30;;;;;;5093911;28;20646;-60
2023/06/10 08:19:28;;;;;;;3.10;2.80;;;42.20;39.60;;;;;;5095134;28;20208;-58
2023/06/10 08:21:55;;;;;;;4.63;3.00;;;42.60;39.30;;;;;;5093744;28;20199;-59
2023/06/10 08:24:22;;;;;;;3.67;2.80;;;42.60;39.30;;;;;;5094484;28;20803;-59
2023/06/10 08:26:49;;;;;;;4.60;2.60;;;42.10;39.70;;;;;;5094599;28;20204;-62
2023/06/10 08:29:17;;;;;;;3.20;2.72;;;42.10;39.80;;;;;;5094284;28;20302;-60
2023/06/10 08:31:44;;;;;;;3.10;2.80;;;42.00;39.50;;;;;;5094714;28;20586;-59
2023/06/10 08:34:11;;;;;;;3.05;2.70;;;41.90;39.90;;;;;;5094584;28;20211;-61
2023/06/10 08:36:38;;;;;;;6.18;2.47;;;41.70;40.10;;;;;;5094946;28;20200;-61
2023/06/10 08:39:05;;;;;;;3.45;2.97;;;41.10;40.50;;;;;;5093783;28;20569;-61
2023/06/10 08:41:36;;;;;;;3.25;2.95;;;40.30;41.20;;;;;;5093555;28;20207;-61
2023/06/10 08:44:09;;;;;;;6.40;3.00;;;40.20;41.40;;;;;;5093510;28;20208;-60
2023/06/10 08:46:38;;;;;;;3.60;2.70;;;40.00;41.70;;;;;;5093152;28;20204;-60
2023/06/10 08:49:07;;;;;;;3.97;3.08;;;39.30;42.20;;;;;;5093141;28;20318;-61
2023/06/10 08:51:35;;;;;;;3.50;3.08;;;37.90;43.80;;;;;;5093672;28;20207;-61
2023/06/10 08:54:04;;;;;;;4.43;2.60;;;36.30;45.50;;;;;;5094874;28;20669;-61
2023/06/10 08:56:36;;;;;;;4.00;3.22;;;34.70;47.50;;;;;;5095033;28;20215;-61
2023/06/10 08:59:03;;;;;;;4.45;3.10;;;33.40;49.70;;;;;;5093412;28;20227;-60
2023/06/10 09:01:30;;;;;;;3.13;2.80;;;32.30;51.80;;;;;;5093473;28;20204;-59
2023/06/10 09:04:00;;;;;;;5.07;3.10;;;31.50;53.10;;;;;;5093463;28;20395;-60
2023/06/10 09:06:27;;;;;;;4.40;3.10;;;30.90;54.50;;;;;;5092777;28;20232;-60
2023/06/10 09:08:55;;;;;;;5.70;3.17;;;30.40;55.40;;;;;;5093087;28;20236;-60
2023/06/10 09:11:21;;;;;;;4.47;3.30;;;30.10;56.50;;;;;;5093048;28;20219;-60
2023/06/10 09:13:48;;;;;;;3.42;3.13;;;30.00;56.50;;;;;;5092561;28;20697;-59
2023/06/10 09:16:16;;;;;;;4.20;3.28;;;30.10;56.40;;;;;;5092486;28;20215;-60
2023/06/10 09:18:43;;;;;;;4.18;3.40;;;30.20;56.30;;;;;;5092293;28;20232;-60
2023/06/10 09:21:11;;;;;;;5.93;3.08;;;30.40;56.10;;;;;;5092592;28;20692;-60
2023/06/10 09:23:38;;;;;;;3.95;3.00;;;30.40;56.50;;;;;;5092660;28;20212;-59
2023/06/10 09:26:11;;;;;;;3.72;3.42;;;30.30;56.90;;;;;;5092270;28;20207;-60
2023/06/10 09:28:39;;;;;;;4.05;3.65;;;30.20;57.60;;;;;;5086153;28;20355;-68
2023/06/10 09:31:07;;;;;;;3.55;3.25;;;29.80;58.10;;;;;;5072365;28;20201;-66
2023/06/10 09:33:37;;;;;;;3.97;3.30;;;29.40;59.00;;;;;;5072599;28;20212;-59
2023/06/10 09:36:04;;;;;;;4.75;3.47;;;29.20;59.50;;;;;;5072079;28;20205;-63
2023/06/10 09:38:33;;;;;;;4.30;3.75;;;29.10;59.70;;;;;;5074127;28;20220;-63
2023/06/10 09:41:01;;;;;;;4.57;3.10;;;28.90;60.60;;;;;;5072672;28;20213;-60
2023/06/10 09:43:44;;;;;;;3.92;3.60;;;28.80;60.90;;;;;;5071571;28;20590;-60
2023/06/10 09:46:17;;;;;;;5.57;3.40;;;28.70;61.50;;;;;;5071948;28;20283;-59
2023/06/10 09:48:45;;;;;;;3.85;3.45;;;28.60;61.90;;;;;;5071988;28;20228;-58
2023/06/10 09:51:13;;;;;;;3.65;3.35;;;28.60;62.80;;;;;;5072113;28;20201;-60
2023/06/10 09:53:41;;;;;;;4.38;3.28;;;28.70;62.40;;;;;;5071880;28;20211;-59
2023/06/10 09:56:08;;;;;;;4.80;3.30;;;28.80;62.50;;;;;;5071687;28;20231;-60
2023/06/10 09:58:36;;;;;;;5.68;3.38;;;28.90;61.60;;;;;;5071721;28;20221;-61
2023/06/10 10:01:06;;;;;;;4.38;3.50;;;29.00;61.70;;;;;;5071818;28;20211;-61
2023/06/10 10:03:33;;;;;;;6.07;3.65;;;29.00;62.10;;;;;;5071881;28;20296;-60
2023/06/10 10:06:00;;;;;;;3.83;3.47;;;29.00;62.30;;;;;;5071608;28;20212;-60
2023/06/10 10:08:27;;;;;;;6.32;3.30;;;29.00;62.10;;;;;;5073279;28;20240;-63
2023/06/10 10:10:58;;;;;;;4.75;3.47;;;29.00;61.90;;;;;;5073881;28;20208;-62
2023/06/10 10:13:27;;;;;;;4.60;3.78;;;29.00;62.40;;;;;;5072047;28;20236;-64
2023/06/10 10:15:56;;;;;;;4.68;4.22;;;28.90;62.10;;;;;;5071420;28;20683;-60
2023/06/10 10:18:30;;;;;;;3.75;3.45;;;28.80;62.40;;;;;;5071112;28;20827;-62
2023/06/10 10:20:58;;;;;;;3.97;3.58;;;28.80;62.60;;;;;;5072176;28;20250;-60
2023/06/10 10:23:30;;;;;;;8.02;3.95;;;28.80;62.00;;;;;;5071865;28;20635;-60
2023/06/10 10:26:04;;;;;;;4.25;3.83;;;28.90;62.00;;;;;;5071881;28;20267;-60
2023/06/10 10:28:42;;;;;;;3.88;3.58;;;28.90;61.60;;;;;;5071877;28;20282;-61
2023/06/10 10:31:11;;;;;;;7.20;4.75;;;29.00;61.30;;;;;;5074101;28;20243;-61
2023/06/10 10:33:46;;;;;;;5.45;3.28;;;29.00;61.30;;;;;;5074659;28;20576;-64
2023/06/10 10:36:14;;;;;;;3.60;3.30;;;29.00;61.40;;;;;;5071638;28;20209;-61
2023/06/10 10:38:42;;;;;;;3.28;2.90;;;29.20;61.10;;;;;;5075297;28;20244;-61
2023/06/10 10:41:11;;;;;;;3.70;3.22;;;29.30;59.80;;;;;;5075013;28;20298;-60
2023/06/10 10:43:39;;;;;;;3.70;3.35;;;29.40;60.00;;;;;;5076625;28;20212;-64
2023/06/10 10:46:13;;;;;;;4.38;3.97;;;29.50;59.70;;;;;;5076484;28;20211;-61
2023/06/10 10:48:41;;;;;;;5.85;3.35;;;29.60;59.50;;;;;;5075557;28;20231;-61
2023/06/10 10:51:08;;;;;;;3.60;3.28;;;29.50;59.40;;;;;;5075727;28;20220;-63
2023/06/10 10:53:34;;;;;;;4.32;3.50;;;29.40;59.30;;;;;;5076387;28;20262;-62
2023/06/10 10:56:07;;;;;;;4.15;3.40;;;29.20;59.70;;;;;;5076012;28;20216;-62
2023/06/10 10:58:36;;;;;;;7.65;5.32;;;29.10;59.70;;;;;;5077463;28;20275;-64
2023/06/10 11:01:11;;;;;;;4.65;3.95;;;29.20;59.60;;;;;;5077841;28;20255;-63
2023/06/10 11:03:46;;;;;;;3.67;3.35;;;29.30;59.00;;;;;;5077411;28;20270;-61
2023/06/10 11:06:15;;;;;;;7.82;3.42;;;29.40;59.10;;;;;;5076924;28;20262;-63
2023/06/10 11:08:50;;;;;;;3.78;3.38;;;29.50;58.80;;;;;;5077041;28;20221;-60
2023/06/10 11:11:21;;;;;;;3.53;3.22;;;29.50;58.80;;;;;;5077697;28;20240;-62
2023/06/10 11:14:09;;;;;;;3.03;2.75;;;29.50;59.20;;;;;;5076754;28;20587;-62
2023/06/10 11:16:41;;;;;;;3.72;3.03;;;29.60;58.50;;;;;;5078075;28;20215;-62
2023/06/10 11:19:08;;;;;;;6.45;3.22;;;29.70;58.00;;;;;;5076505;28;20710;-62
2023/06/10 11:21:58;;;;;;;3.80;3.00;;;29.60;58.10;;;;;;5076822;28;20229;-61
2023/06/10 11:24:26;;;;;;;4.97;2.95;;;29.50;58.70;;;;;;5076341;28;20751;-60
2023/06/10 11:26:53;;;;;;;3.33;2.97;;;29.50;58.20;;;;;;5075461;28;20262;-62
2023/06/10 11:29:22;;;;;;;3.33;2.75;;;29.60;58.10;;;;;;5075357;28;20239;-63
2023/06/10 11:31:52;;;;;;;4.55;3.08;;;29.70;58.10;;;;;;5075371;28;20212;-62
2023/06/10 11:34:26;;;;;;;3.30;3.00;;;29.70;58.10;;;;;;5075971;28;20240;-63
2023/06/10 11:36:54;;;;;;;3.40;2.72;;;29.70;58.10;;;;;;5074739;28;20200;-62
2023/06/10 11:39:23;;;;;;;3.00;2.50;;;29.70;57.50;;;;;;5074846;28;20799;-62
2023/06/10 11:41:51;;;;;;;3.42;3.00;;;30.00;56.90;;;;;;5074756;28;20215;-61
2023/06/10 11:44:18;;;;;;;3.28;2.50;;;30.10;57.00;;;;;;5074586;28;20204;-61
2023/06/10 11:46:48;;;;;;;2.70;2.50;;;30.10;56.20;;;;;;5074218;28;20208;-61
2023/06/10 11:49:16;;;;;;;4.57;2.72;;;30.10;56.80;;;;;;5075486;28;20721;-63
2023/06/10 11:51:48;;;;;;;2.72;2.53;;;30.10;56.50;;;;;;5075032;28;20266;-61
2023/06/10 11:54:16;;;;;;;2.42;2.22;;;30.40;56.90;;;;;;5073878;28;20761;-62
2023/06/10 11:56:43;;;;;;;3.05;2.35;;;30.60;55.10;;;;;;5073747;28;20209;-61
2023/06/10 11:59:09;;;;;;;3.30;3.00;;;30.70;54.90;;;;;;5074730;28;20725;-62
2023/06/10 12:01:37;;;;;;;3.15;2.88;;;30.70;56.20;;;;;;5074676;28;20244;-60
2023/06/10 12:04:07;;;;;;;3.60;3.30;;;30.50;57.20;;;;;;5073755;28;20227;-61
2023/06/10 12:06:43;;;;;;;3.05;2.75;;;30.10;57.40;;;;;;5074264;28;20205;-61
2023/06/10 12:09:15;;;;;;;2.83;2.63;;;29.90;57.40;;;;;;5075102;28;20232;-62
2023/06/10 12:11:43;;;;;;;3.13;2.70;;;30.00;57.30;;;;;;5083750;28;20204;-60
2023/06/10 12:14:09;;;;;;;3.00;2.70;;;30.20;56.70;;;;;;5079550;28;20212;-61
2023/06/10 12:16:36;;;;;;;3.13;2.70;;;30.50;56.20;;;;;;5074589;28;20574;-61
2023/06/10 12:19:06;;;;;;;2.63;2.25;;;30.60;55.50;;;;;;5074678;28;20225;-61
2023/06/10 12:21:35;;;;;;;3.90;2.55;;;30.30;55.80;;;;;;5074052;28;20205;-63
2023/06/10 12:24:04;;;;;;;3.35;2.60;;;30.20;55.80;;;;;;5072968;28;20212;-60
2023/06/10 12:26:42;;;;;;;5.32;2.63;;;30.10;56.30;;;;;;5073748;28;20209;-61
2023/06/10 12:29:20;;;;;;;3.35;2.67;;;30.10;56.30;;;;;;5073706;28;20232;-59
2023/06/10 12:32:01;;;;;;;3.95;2.58;;;30.40;55.40;;;;;;5081064;28;20243;-62
2023/06/10 12:34:37;;;;;;;3.03;2.50;;;30.80;54.90;;;;;;5094342;28;20298;-61
2023/06/10 12:37:05;;;;;;;2.65;2.45;;;31.40;54.80;;;;;;5093226;28;20222;-61
2023/06/10 12:39:33;;;;;;;3.00;2.70;;;31.50;54.10;;;;;;5093577;28;20200;-61
2023/06/10 12:42:01;;;;;;;2.58;2.38;;;31.40;54.00;;;;;;5093122;28;20200;-59
2023/06/10 12:44:35;;;;;;;4.20;2.35;;;31.10;54.00;;;;;;5093155;28;20204;-58
2023/06/10 12:47:07;;;;;;;3.20;2.63;;;30.90;54.60;;;;;;5092535;28;20290;-58
2023/06/10 12:49:36;;;;;;;2.45;2.25;;;30.60;55.30;;;;;;5093899;28;20262;-60
2023/06/10 12:52:03;;;;;;;3.95;2.60;;;30.30;55.70;;;;;;5094362;28;20207;-59
2023/06/10 12:54:30;;;;;;;3.70;2.80;;;30.30;56.50;;;;;;5093264;28;20207;-61